Terminal Aerodrome Forecast
Issued by NWS

Home | Current Version | Previous Version | Graphics & Text | Print | Product List | Glossary On
Versions: 1 2 3 4 5 6 7 8 9 10 11 12
000
FTUS45 KGGW 190500
TAFSDY
TAF
KSDY 190524Z 1906/2006 27008KT P6SM BKN120
     FM191200 28011KT P6SM SCT110
     FM191900 30017KT P6SM -SHRA BKN080
     FM200200 29009KT P6SM FEW100
      AMD LTD TO CLD VIS AND WIND=

USA.gov is the U.S. government's official web portal to all federal, state and local government web resources and services.